createdAt,value
2018-03-17T00:00:50.158Z,95.07
2018-03-17T00:01:50.056Z,95.26
2018-03-17T00:02:50.066Z,95.36
2018-03-17T00:03:49.931Z,95.64
2018-03-17T00:04:49.888Z,95.36
2018-03-17T00:05:49.836Z,95.45
2018-03-17T00:06:49.799Z,95.83
2018-03-17T00:07:49.758Z,95.17
2018-03-17T00:08:49.788Z,95.93
2018-03-17T00:09:49.663Z,95.83
2018-03-17T00:10:49.617Z,95.17
2018-03-17T00:11:49.572Z,95.55
2018-03-17T00:12:49.531Z,95.64
2018-03-17T00:13:49.506Z,94.98
2018-03-17T00:14:49.437Z,95.93
2018-03-17T00:15:49.395Z,95.36
2018-03-17T00:16:49.347Z,95.83
2018-03-17T00:17:49.298Z,94.89
2018-03-17T00:18:49.280Z,95.17
2018-03-17T00:19:49.210Z,94.98
2018-03-17T00:20:49.185Z,94.79
2018-03-17T00:21:49.128Z,94.89
2018-03-17T00:22:49.086Z,94.70
2018-03-17T00:23:49.061Z,95.07
2018-03-17T00:24:49.048Z,95.45
2018-03-17T00:25:48.939Z,95.17
2018-03-17T00:26:48.902Z,95.83
2018-03-17T00:27:48.847Z,95.55
2018-03-17T00:28:48.833Z,95.74
2018-03-17T00:29:48.764Z,95.26
2018-03-17T00:30:48.718Z,94.89
2018-03-17T00:31:48.673Z,94.79
2018-03-17T00:32:48.628Z,95.07
2018-03-17T00:33:48.581Z,95.45
2018-03-17T00:34:48.558Z,95.45
2018-03-17T00:35:48.492Z,95.83
2018-03-17T00:36:48.444Z,96.21
2018-03-17T00:37:48.407Z,96.31
2018-03-17T00:38:48.357Z,96.02
2018-03-17T00:39:48.306Z,95.45
2018-03-17T00:40:48.290Z,95.83
2018-03-17T00:41:48.215Z,94.98
2018-03-17T00:42:48.181Z,95.74
2018-03-17T00:43:48.136Z,95.93
2018-03-17T00:44:48.084Z,96.02
2018-03-17T00:45:48.064Z,96.12
2018-03-17T00:46:48.011Z,95.64
2018-03-17T00:47:47.953Z,95.07
2018-03-17T00:48:47.911Z,95.64
2018-03-17T00:49:47.862Z,95.83
2018-03-17T00:50:47.822Z,95.55
2018-03-17T00:51:47.800Z,95.83
2018-03-17T00:52:47.731Z,95.93
2018-03-17T00:53:47.679Z,96.02
2018-03-17T00:54:47.646Z,96.21
2018-03-17T00:55:47.605Z,96.02
2018-03-17T00:56:47.557Z,95.74
2018-03-17T00:57:47.560Z,95.55
2018-03-17T00:58:47.453Z,96.40
2018-03-17T00:59:47.408Z,95.64
2018-03-17T01:00:47.361Z,96.02
2018-03-17T01:01:47.322Z,95.64
2018-03-17T01:02:47.276Z,96.12
2018-03-17T01:03:47.244Z,96.40
2018-03-17T01:04:47.182Z,96.59
2018-03-17T01:05:47.138Z,95.64
2018-03-17T01:06:47.126Z,96.21
2018-03-17T01:07:47.054Z,95.64
2018-03-17T01:08:47.036Z,96.02
2018-03-17T01:09:46.957Z,95.45
2018-03-17T01:10:46.899Z,96.31
2018-03-17T01:11:46.872Z,96.12
2018-03-17T01:12:46.839Z,96.21
2018-03-17T01:13:46.773Z,95.74
2018-03-17T01:14:46.775Z,95.93
2018-03-17T01:15:46.680Z,96.02
2018-03-17T01:16:46.628Z,96.31
2018-03-17T01:17:46.591Z,95.83
2018-03-17T01:18:46.558Z,96.21
2018-03-17T01:19:46.514Z,96.21
2018-03-17T01:20:46.486Z,95.74
2018-03-17T01:21:46.411Z,96.02
2018-03-17T01:22:46.359Z,96.50
2018-03-17T01:23:46.312Z,96.31
2018-03-17T01:24:46.265Z,95.64
2018-03-17T01:25:46.271Z,95.55
2018-03-17T01:26:46.181Z,95.26
2018-03-17T01:27:46.185Z,95.74
2018-03-17T01:28:46.086Z,95.93
2018-03-17T01:29:46.046Z,95.36
2018-03-17T01:30:45.996Z,95.17
2018-03-17T01:31:45.985Z,94.98
2018-03-17T01:32:45.906Z,95.26
2018-03-17T01:33:45.860Z,95.17
2018-03-17T01:34:45.811Z,95.74
2018-03-17T01:35:45.772Z,95.64
2018-03-17T01:36:45.743Z,95.64
2018-03-17T01:37:45.681Z,95.26
2018-03-17T01:38:45.630Z,95.64
2018-03-17T01:39:45.589Z,95.64
2018-03-17T01:40:45.538Z,95.64
2018-03-17T01:41:45.537Z,95.64
2018-03-17T01:42:45.453Z,95.55
2018-03-17T01:43:45.407Z,95.17
2018-03-17T01:44:45.365Z,95.74
2018-03-17T01:45:45.314Z,95.83
2018-03-17T01:46:45.289Z,95.83
2018-03-17T01:47:45.220Z,94.93
2018-03-17T01:48:45.174Z,95.36
2018-03-17T01:49:45.132Z,95.83
2018-03-17T01:50:45.112Z,95.69
2018-03-17T01:51:45.082Z,95.64
2018-03-17T01:52:45.007Z,95.26
2018-03-17T01:53:44.947Z,94.74
2018-03-17T01:54:44.908Z,94.74
2018-03-17T01:55:44.860Z,94.65
2018-03-17T01:56:44.822Z,95.21
2018-03-17T01:57:44.788Z,95.40
2018-03-17T01:58:44.726Z,95.12
2018-03-17T01:59:44.684Z,94.84
2018-03-17T02:00:44.637Z,95.78
2018-03-17T02:01:44.589Z,95.03
2018-03-17T02:02:44.562Z,95.40
2018-03-17T02:03:44.505Z,95.31
2018-03-17T02:04:44.448Z,95.12
2018-03-17T02:05:44.414Z,94.65
2018-03-17T02:06:44.358Z,94.93
2018-03-17T02:07:44.350Z,94.84
2018-03-17T02:08:44.269Z,94.93
2018-03-17T02:09:44.232Z,94.84
2018-03-17T02:10:44.184Z,95.03
2018-03-17T02:11:44.132Z,95.69
2018-03-17T02:12:44.097Z,95.59
2018-03-17T02:13:44.064Z,94.93
2018-03-17T02:14:44.008Z,95.59
2018-03-17T02:15:43.944Z,95.31
2018-03-17T02:16:43.909Z,95.50
2018-03-17T02:17:43.862Z,96.07
2018-03-17T02:18:43.833Z,97.86
2018-03-17T02:19:43.766Z,98.52
2018-03-17T02:20:43.721Z,98.52
2018-03-17T02:21:43.675Z,96.64
2018-03-17T02:22:43.629Z,95.88
2018-03-17T02:23:43.609Z,95.78
2018-03-17T02:24:43.541Z,95.69
2018-03-17T02:25:43.501Z,96.07
2018-03-17T02:26:43.444Z,95.69
2018-03-17T02:27:43.408Z,95.78
2018-03-17T02:28:43.386Z,96.16
2018-03-17T02:29:43.319Z,96.26
2018-03-17T02:30:43.262Z,95.78
2018-03-17T02:31:43.231Z,95.50
2018-03-17T02:32:43.177Z,95.69
2018-03-17T02:33:43.126Z,96.16
2018-03-17T02:34:43.149Z,95.59
2018-03-17T02:35:43.071Z,95.21
2018-03-17T02:36:42.988Z,95.88
2018-03-17T02:37:42.951Z,95.97
2018-03-17T02:38:42.902Z,96.54
2018-03-17T02:39:42.885Z,95.12
2018-03-17T02:40:42.810Z,95.78
2018-03-17T02:41:42.768Z,95.97
2018-03-17T02:42:42.715Z,95.21
2018-03-17T02:43:42.664Z,96.35
2018-03-17T02:44:42.623Z,95.59
2018-03-17T02:45:42.611Z,95.21
2018-03-17T02:46:42.531Z,94.84
2018-03-17T02:47:42.488Z,95.21
2018-03-17T02:48:42.442Z,95.78
2018-03-17T02:49:42.401Z,96.07
2018-03-17T02:50:42.339Z,96.26
2018-03-17T02:51:42.338Z,96.45
2018-03-17T02:52:42.257Z,96.07
2018-03-17T02:53:42.203Z,95.59
2018-03-17T02:54:42.171Z,95.59
2018-03-17T02:55:42.139Z,95.69
2018-03-17T02:56:42.070Z,96.54
2018-03-17T02:57:42.054Z,96.26
2018-03-17T02:58:41.982Z,96.54
2018-03-17T02:59:41.941Z,96.45
2018-03-17T03:00:41.891Z,96.92
2018-03-17T03:01:41.836Z,97.30
2018-03-17T03:02:41.814Z,97.58
2018-03-17T03:03:41.753Z,97.20
2018-03-17T03:04:41.711Z,97.01
2018-03-17T03:05:41.655Z,97.49
2018-03-17T03:06:41.611Z,96.92
2018-03-17T03:07:41.596Z,97.01
2018-03-17T03:08:41.521Z,98.43
2018-03-17T03:09:41.470Z,97.39
2018-03-17T03:10:41.423Z,97.39
2018-03-17T03:11:41.392Z,97.39
2018-03-17T03:12:41.343Z,97.58
2018-03-17T03:13:41.308Z,97.81
2018-03-17T03:14:41.240Z,97.15
2018-03-17T03:15:41.202Z,97.67
2018-03-17T03:16:41.157Z,97.58
2018-03-17T03:17:41.115Z,98.19
2018-03-17T03:18:41.058Z,97.63
2018-03-17T03:19:41.032Z,97.72
2018-03-17T03:20:40.963Z,98.57
2018-03-17T03:21:40.922Z,98.62
2018-03-17T03:22:40.914Z,98.33
2018-03-17T03:23:40.842Z,97.44
2018-03-17T03:24:40.813Z,97.72
2018-03-17T03:25:40.733Z,97.15
2018-03-17T03:26:40.700Z,97.06
2018-03-17T03:27:40.637Z,97.34
2018-03-17T03:28:40.606Z,97.44
2018-03-17T03:29:40.557Z,97.06
2018-03-17T03:30:40.536Z,97.34
2018-03-17T03:31:40.460Z,97.25
2018-03-17T03:32:40.413Z,97.25
2018-03-17T03:33:40.367Z,97.34
2018-03-17T03:34:40.319Z,97.25
2018-03-17T03:35:40.275Z,96.68
2018-03-17T03:36:40.257Z,96.40
2018-03-17T03:37:40.188Z,96.30
2018-03-17T03:38:40.140Z,97.25
2018-03-17T03:39:40.093Z,96.02
2018-03-17T03:40:40.044Z,96.02
2018-03-17T03:41:40.057Z,95.92
2018-03-17T03:42:39.950Z,96.40
2018-03-17T03:43:39.902Z,97.06
2018-03-17T03:44:39.855Z,96.96
2018-03-17T03:45:39.813Z,96.11
2018-03-17T03:46:39.769Z,96.30
2018-03-17T03:47:39.754Z,95.64
2018-03-17T03:48:39.682Z,96.21
2018-03-17T03:49:39.630Z,95.73
2018-03-17T03:50:39.595Z,94.79
2018-03-17T03:51:39.536Z,95.07
2018-03-17T03:52:39.514Z,95.36
2018-03-17T03:53:39.450Z,94.98
2018-03-17T03:54:39.395Z,94.79
2018-03-17T03:55:39.360Z,94.79
2018-03-17T03:56:39.303Z,94.79
2018-03-17T03:57:39.252Z,94.79
2018-03-17T03:58:39.243Z,94.70
2018-03-17T03:59:39.163Z,95.07
2018-03-17T04:00:39.125Z,94.79
2018-03-17T04:01:39.088Z,94.89
2018-03-17T04:02:39.029Z,94.70
2018-03-17T04:03:39.005Z,94.22
2018-03-17T04:04:38.940Z,94.22
2018-03-17T04:05:38.888Z,94.98
2018-03-17T04:06:38.841Z,94.79
2018-03-17T04:07:38.797Z,94.41
2018-03-17T04:08:38.751Z,94.32
2018-03-17T04:09:38.733Z,94.13
2018-03-17T04:10:38.661Z,93.56
2018-03-17T04:11:38.613Z,93.37
2018-03-17T04:12:38.564Z,94.22
2018-03-17T04:13:38.523Z,94.22
2018-03-17T04:14:38.473Z,94.08
2018-03-17T04:15:38.461Z,94.37
2018-03-17T04:16:38.382Z,93.47
2018-03-17T04:17:38.327Z,93.37
2018-03-17T04:18:38.295Z,93.75
2018-03-17T04:19:38.234Z,93.94
2018-03-17T04:20:38.198Z,93.66
2018-03-17T04:21:38.175Z,93.56
2018-03-17T04:22:38.105Z,94.13
2018-03-17T04:23:38.054Z,93.84
2018-03-17T04:24:38.018Z,93.75
2018-03-17T04:25:37.964Z,94.03
2018-03-17T04:26:37.945Z,93.47
2018-03-17T04:27:37.880Z,94.03
2018-03-17T04:28:37.819Z,93.47
2018-03-17T04:29:37.775Z,93.56
2018-03-17T04:30:37.730Z,93.56
2018-03-17T04:31:37.688Z,93.56
2018-03-17T04:32:37.666Z,93.75
2018-03-17T04:33:37.605Z,93.94
2018-03-17T04:34:37.570Z,94.32
2018-03-17T04:35:37.494Z,94.22
2018-03-17T04:36:37.462Z,94.03
2018-03-17T04:37:37.417Z,94.03
2018-03-17T04:38:37.395Z,94.22
2018-03-17T04:39:37.316Z,94.41
2018-03-17T04:40:37.277Z,94.41
2018-03-17T04:41:37.228Z,95.26
2018-03-17T04:42:37.180Z,94.60
2018-03-17T04:43:37.147Z,94.89
2018-03-17T04:44:37.086Z,94.79
2018-03-17T04:45:37.033Z,94.98
2018-03-17T04:46:36.986Z,95.45
2018-03-17T04:47:36.948Z,95.45
2018-03-17T04:48:36.929Z,94.70
2018-03-17T04:49:36.845Z,95.45
2018-03-17T04:50:36.811Z,95.54
2018-03-17T04:51:36.759Z,95.92
2018-03-17T04:52:36.719Z,95.26
2018-03-17T04:53:36.667Z,95.92
2018-03-17T04:54:36.658Z,96.02
2018-03-17T04:55:36.567Z,96.68
2018-03-17T04:56:36.527Z,96.02
2018-03-17T04:57:36.482Z,95.83
2018-03-17T04:58:36.436Z,95.73
2018-03-17T04:59:36.391Z,95.92
2018-03-17T05:00:36.388Z,95.92
2018-03-17T05:01:36.295Z,95.54
2018-03-17T05:02:36.262Z,95.64
2018-03-17T05:03:36.202Z,96.30
2018-03-17T05:04:36.157Z,95.36
2018-03-17T05:05:36.143Z,95.17
2018-03-17T05:06:36.056Z,95.36
2018-03-17T05:07:36.013Z,95.36
2018-03-17T05:08:35.971Z,95.64
2018-03-17T05:09:35.934Z,95.54
2018-03-17T05:10:35.885Z,95.36
2018-03-17T05:11:35.862Z,95.64
2018-03-17T05:12:35.786Z,95.54
2018-03-17T05:13:35.745Z,95.54
2018-03-17T05:14:35.698Z,95.54
2018-03-17T05:15:35.641Z,96.02
2018-03-17T05:16:35.593Z,95.83
2018-03-17T05:17:35.579Z,95.45
2018-03-17T05:18:35.509Z,95.17
2018-03-17T05:19:35.464Z,94.79
2018-03-17T05:20:35.417Z,95.45
2018-03-17T05:21:35.369Z,95.64
2018-03-17T05:22:35.354Z,95.45
2018-03-17T05:23:35.268Z,95.36
2018-03-17T05:24:35.230Z,95.83
2018-03-17T05:25:35.180Z,94.89
2018-03-17T05:26:35.133Z,94.79
2018-03-17T05:27:35.092Z,94.70
2018-03-17T05:28:35.070Z,94.98
2018-03-17T05:29:35.000Z,94.22
2018-03-17T05:30:34.952Z,94.22
2018-03-17T05:31:34.902Z,94.22
2018-03-17T05:32:34.855Z,94.13
2018-03-17T05:33:34.802Z,93.94
2018-03-17T05:34:34.790Z,94.13
2018-03-17T05:35:34.761Z,93.84
2018-03-17T05:36:34.677Z,94.70
2018-03-17T05:37:34.627Z,94.60
2018-03-17T05:38:34.579Z,93.84
2018-03-17T05:39:34.533Z,94.79
2018-03-17T05:40:34.501Z,94.98
2018-03-17T05:41:34.443Z,94.32
2018-03-17T05:42:34.402Z,94.41
2018-03-17T05:43:34.349Z,94.32
2018-03-17T05:44:34.294Z,94.32
2018-03-17T05:45:34.276Z,94.22
2018-03-17T05:46:34.203Z,94.13
2018-03-17T05:47:34.154Z,94.98
2018-03-17T05:48:34.108Z,94.79
2018-03-17T05:49:34.063Z,94.79
2018-03-17T05:50:34.015Z,94.79
2018-03-17T05:51:34.002Z,94.98
2018-03-17T05:52:33.930Z,94.89
2018-03-17T05:53:33.875Z,94.51
2018-03-17T05:54:33.835Z,93.75
2018-03-17T05:55:33.787Z,94.79
2018-03-17T05:56:33.742Z,94.41
2018-03-17T05:57:33.717Z,94.79
2018-03-17T05:58:33.641Z,94.60
2018-03-17T05:59:33.589Z,94.22
2018-03-17T06:00:33.545Z,94.22
2018-03-17T06:01:33.535Z,93.66
2018-03-17T06:02:33.569Z,94.41
2018-03-17T06:03:33.414Z,94.79
2018-03-17T06:04:33.369Z,94.70
2018-03-17T06:05:33.318Z,94.32
2018-03-17T06:06:33.308Z,93.37
2018-03-17T06:07:33.227Z,92.99
2018-03-17T06:08:33.168Z,92.90
2018-03-17T06:09:33.124Z,92.71
2018-03-17T06:10:33.084Z,92.43
2018-03-17T06:11:33.037Z,93.37
2018-03-17T06:12:33.016Z,93.28
2018-03-17T06:13:32.944Z,92.61
2018-03-17T06:14:32.898Z,92.43
2018-03-17T06:15:32.865Z,92.43
2018-03-17T06:16:32.808Z,92.71
2018-03-17T06:17:32.776Z,92.52
2018-03-17T06:18:32.709Z,92.80
2018-03-17T06:19:32.653Z,92.14
2018-03-17T06:20:32.610Z,91.96
2018-03-17T06:21:32.574Z,91.67
2018-03-17T06:22:32.559Z,91.01
2018-03-17T06:23:32.474Z,91.58
2018-03-17T06:24:32.428Z,91.10
2018-03-17T06:25:42.755Z,91.29
2018-03-17T06:26:32.340Z,91.39
2018-03-17T06:27:32.295Z,91.58
2018-03-17T06:28:32.280Z,91.20
2018-03-17T06:29:32.195Z,90.73
2018-03-17T06:30:32.148Z,90.82
2018-03-17T06:31:32.106Z,91.29
2018-03-17T06:32:32.062Z,91.29
2018-03-17T06:33:32.027Z,91.01
2018-03-17T06:34:31.987Z,90.63
2018-03-17T06:35:31.913Z,90.82
2018-03-17T06:36:31.870Z,90.82
2018-03-17T06:37:31.821Z,90.44
2018-03-17T06:38:31.804Z,90.54
2018-03-17T06:39:31.739Z,90.35
2018-03-17T06:40:31.685Z,90.73
2018-03-17T06:41:31.644Z,91.58
2018-03-17T06:42:31.591Z,91.20
2018-03-17T06:43:31.550Z,91.58
2018-03-17T06:44:31.591Z,91.01
2018-03-17T06:45:31.459Z,90.35
2018-03-17T06:46:31.402Z,90.44
2018-03-17T06:47:31.353Z,90.73
2018-03-17T06:48:31.311Z,90.35
2018-03-17T06:49:31.296Z,90.35
2018-03-17T06:50:31.218Z,90.63
2018-03-17T06:51:31.177Z,89.78
2018-03-17T06:52:31.126Z,89.87
2018-03-17T06:53:31.080Z,90.54
2018-03-17T06:54:31.035Z,89.97
2018-03-17T06:55:31.002Z,90.25
2018-03-17T06:56:30.940Z,90.16
2018-03-17T06:57:30.883Z,90.91
2018-03-17T06:58:30.849Z,90.44
2018-03-17T06:59:30.794Z,89.12
2018-03-17T07:00:30.758Z,89.87
2018-03-17T07:01:30.726Z,89.97
2018-03-17T07:02:30.650Z,89.40
2018-03-17T07:03:30.606Z,88.93
2018-03-17T07:04:30.557Z,89.50
2018-03-17T07:05:30.519Z,89.69
2018-03-17T07:06:30.506Z,90.44
2018-03-17T07:07:40.788Z,90.44
2018-03-17T07:08:30.378Z,91.48
2018-03-17T07:09:30.356Z,91.58
2018-03-17T07:10:30.291Z,92.24
2018-03-17T07:11:30.283Z,91.86
2018-03-17T07:12:30.196Z,91.86
2018-03-17T07:13:30.162Z,91.29
2018-03-17T07:14:30.101Z,91.20
2018-03-17T07:15:30.051Z,91.86
2018-03-17T07:16:30.004Z,92.14
2018-03-17T07:17:29.974Z,91.67
2018-03-17T07:18:29.920Z,91.58
2018-03-17T07:19:29.861Z,91.48
2018-03-17T07:20:29.827Z,91.96
2018-03-17T07:21:29.802Z,91.48
2018-03-17T07:22:29.726Z,91.67
2018-03-17T07:23:29.680Z,91.96
2018-03-17T07:24:29.632Z,92.80
2018-03-17T07:25:29.580Z,92.99
2018-03-17T07:26:29.569Z,92.61
2018-03-17T07:27:29.498Z,93.75
2018-03-17T07:28:39.813Z,92.24
2018-03-17T07:29:29.398Z,92.99
2018-03-17T07:30:29.363Z,93.09
2018-03-17T07:31:29.341Z,92.80
2018-03-17T07:32:29.274Z,92.05
2018-03-17T07:33:29.221Z,92.71
2018-03-17T07:34:29.171Z,92.71
2018-03-17T07:35:29.123Z,91.58
2018-03-17T07:36:29.072Z,91.29
2018-03-17T07:37:29.051Z,92.24
2018-03-17T07:38:28.981Z,92.05
2018-03-17T07:39:28.935Z,91.86
2018-03-17T07:40:28.899Z,92.24
2018-03-17T07:41:28.847Z,91.77
2018-03-17T07:42:28.803Z,91.67
2018-03-17T07:43:28.770Z,91.39
2018-03-17T07:44:28.692Z,90.82
2018-03-17T07:45:28.661Z,90.63
2018-03-17T07:46:28.613Z,90.44
2018-03-17T07:47:28.559Z,90.35
2018-03-17T07:48:38.367Z,90.82
2018-03-17T07:49:28.469Z,90.44
2018-03-17T07:50:28.427Z,90.06
2018-03-17T07:51:28.376Z,89.78
2018-03-17T07:52:28.346Z,89.22
2018-03-17T07:53:28.286Z,89.78
2018-03-17T07:54:28.273Z,89.59
2018-03-17T07:55:28.183Z,89.22
2018-03-17T07:56:28.149Z,89.22
2018-03-17T07:57:28.102Z,89.59
2018-03-17T07:58:28.057Z,89.12
2018-03-17T07:59:28.002Z,89.78
2018-03-17T08:00:27.980Z,90.25
2018-03-17T08:01:27.915Z,90.44
2018-03-17T08:02:27.857Z,90.77
2018-03-17T08:03:27.820Z,90.40
2018-03-17T08:04:27.803Z,90.44
2018-03-17T08:05:27.734Z,90.77
2018-03-17T08:06:27.680Z,91.06
2018-03-17T08:07:27.633Z,90.68
2018-03-17T08:08:27.585Z,91.15
2018-03-17T08:09:37.388Z,90.87
2018-03-17T08:10:27.493Z,91.25
2018-03-17T08:11:27.459Z,91.53
2018-03-17T08:12:27.405Z,91.25
2018-03-17T08:13:37.391Z,90.77
2018-03-17T08:14:27.368Z,91.15
2018-03-17T08:15:27.284Z,91.15
2018-03-17T08:16:27.216Z,91.15
2018-03-17T08:17:27.169Z,91.34
2018-03-17T08:18:27.117Z,91.72
2018-03-17T08:19:27.083Z,91.06
2018-03-17T08:20:27.056Z,91.72
2018-03-17T08:21:26.974Z,90.30
2018-03-17T08:22:26.976Z,90.11
2018-03-17T08:23:26.888Z,90.59
2018-03-17T08:24:26.840Z,91.63
2018-03-17T08:25:26.842Z,91.34
2018-03-17T08:26:26.800Z,91.15
2018-03-17T08:27:26.710Z,91.25
2018-03-17T08:28:26.660Z,91.72
2018-03-17T08:29:26.613Z,92.00
2018-03-17T08:30:26.559Z,91.63
2018-03-17T08:31:26.539Z,91.34
2018-03-17T08:32:26.477Z,90.96
2018-03-17T08:33:26.418Z,91.53
2018-03-17T08:34:26.385Z,92.00
2018-03-17T08:35:26.332Z,91.91
2018-03-17T08:36:26.288Z,91.82
2018-03-17T08:37:26.260Z,92.29
2018-03-17T08:38:26.185Z,91.63
2018-03-17T08:39:26.216Z,92.29
2018-03-17T08:40:26.095Z,91.91
2018-03-17T08:41:26.043Z,91.72
2018-03-17T08:42:26.003Z,92.00
2018-03-17T08:43:25.984Z,91.91
2018-03-17T08:44:25.919Z,92.29
2018-03-17T08:45:25.862Z,91.53
2018-03-17T08:46:25.820Z,91.20
2018-03-17T08:47:25.769Z,91.77
2018-03-17T08:48:25.758Z,91.10
2018-03-17T08:49:25.677Z,90.59
2018-03-17T08:50:25.626Z,90.68
2018-03-17T08:51:25.591Z,90.35
2018-03-17T08:52:25.543Z,91.10
2018-03-17T08:53:25.493Z,90.44
2018-03-17T08:54:25.543Z,90.16
2018-03-17T08:55:25.398Z,90.25
2018-03-17T08:56:25.359Z,90.63
2018-03-17T08:57:25.312Z,90.82
2018-03-17T08:58:25.279Z,91.01
2018-03-17T08:59:25.210Z,91.01
2018-03-17T09:00:25.186Z,91.01
2018-03-17T09:01:25.127Z,90.25
2018-03-17T09:02:25.086Z,90.73
2018-03-17T09:03:25.051Z,90.54
2018-03-17T09:04:25.433Z,90.73
2018-03-17T09:05:24.944Z,90.44
2018-03-17T09:06:24.911Z,90.54
2018-03-17T09:07:24.845Z,90.63
2018-03-17T09:08:24.798Z,90.35
2018-03-17T09:09:24.787Z,90.73
2018-03-17T09:10:24.709Z,90.40
2018-03-17T09:11:24.661Z,90.25
2018-03-17T09:12:24.615Z,90.82
2018-03-17T09:13:24.572Z,90.82
2018-03-17T09:14:24.520Z,90.63
2018-03-17T09:15:24.506Z,90.68
2018-03-17T09:16:24.436Z,90.68
2018-03-17T09:17:24.389Z,91.20
2018-03-17T09:18:24.339Z,90.59
2018-03-17T09:19:24.293Z,90.73
2018-03-17T09:20:24.271Z,90.73
2018-03-17T09:21:24.201Z,90.63
2018-03-17T09:22:24.162Z,90.54
2018-03-17T09:23:24.115Z,90.63
2018-03-17T09:24:24.105Z,90.82
2018-03-17T09:25:24.025Z,91.29
2018-03-17T09:26:23.973Z,91.01
2018-03-17T09:27:23.930Z,90.73
2018-03-17T09:28:23.885Z,90.16
2018-03-17T09:29:23.861Z,90.49
2018-03-17T09:30:23.807Z,91.48
2018-03-17T09:31:23.750Z,91.77
2018-03-17T09:32:23.694Z,92.05
2018-03-17T09:33:23.665Z,91.20
2018-03-17T09:34:23.626Z,90.87
2018-03-17T09:35:23.555Z,90.96
2018-03-17T09:36:23.512Z,91.39
2018-03-17T09:37:23.461Z,90.77
2018-03-17T09:38:23.428Z,90.91
2018-03-17T09:39:23.407Z,90.87
2018-03-17T09:40:23.336Z,90.82
2018-03-17T09:41:23.301Z,90.77
2018-03-17T09:42:23.230Z,90.44
2018-03-17T09:43:23.191Z,89.87
2018-03-17T09:44:23.146Z,90.91
2018-03-17T09:45:23.132Z,90.44
2018-03-17T09:46:23.054Z,90.44
2018-03-17T09:47:23.010Z,90.63
2018-03-17T09:48:22.961Z,89.31
2018-03-17T09:49:22.918Z,89.31
2018-03-17T09:50:22.903Z,89.31
2018-03-17T09:51:22.823Z,89.59
2018-03-17T09:52:22.779Z,90.73
2018-03-17T09:54:55.718Z,89.97
2018-03-17T09:55:55.698Z,90.06
2018-03-17T09:56:55.642Z,90.06
2018-03-17T09:57:55.585Z,89.31
2018-03-17T09:58:55.549Z,89.87
2018-03-17T09:59:55.500Z,89.50
2018-03-17T10:00:55.449Z,89.78
2018-03-17T10:01:55.416Z,89.69
2018-03-17T10:02:55.363Z,89.69
2018-03-17T10:03:55.306Z,90.16
2018-03-17T10:04:55.263Z,90.54
2018-03-17T10:05:55.215Z,90.54
2018-03-17T10:06:55.193Z,90.35
2018-03-17T10:07:55.121Z,90.06
2018-03-17T10:08:55.082Z,89.50
2018-03-17T10:09:55.030Z,88.08
2018-03-17T10:10:55.004Z,88.46
2018-03-17T10:11:54.967Z,89.59
2018-03-17T10:12:54.914Z,89.40
2018-03-17T10:13:54.900Z,89.59
2018-03-17T10:14:54.811Z,89.12
2018-03-17T10:15:54.758Z,89.31
2018-03-17T10:16:54.713Z,89.12
2018-03-17T10:17:54.693Z,89.03
2018-03-17T10:18:54.621Z,88.27
2018-03-17T10:19:54.571Z,88.27
2018-03-17T10:20:54.536Z,89.12
2018-03-17T10:21:54.487Z,88.84
2018-03-17T10:22:54.471Z,89.12
2018-03-17T10:23:54.399Z,88.93
2018-03-17T10:24:54.350Z,88.65
2018-03-17T10:25:54.307Z,88.27
2018-03-17T10:26:54.254Z,89.40
2018-03-17T10:27:54.214Z,88.55
2018-03-17T10:28:54.191Z,89.40
2018-03-17T10:29:54.122Z,89.22
2018-03-17T10:30:54.086Z,88.84
2018-03-17T10:31:54.027Z,89.12
2018-03-17T10:32:53.989Z,89.40
2018-03-17T10:33:53.962Z,88.93
2018-03-17T10:34:53.894Z,88.65
2018-03-17T10:35:53.845Z,89.31
2018-03-17T10:36:53.807Z,89.22
2018-03-17T10:37:53.777Z,87.98
2018-03-17T10:38:53.757Z,88.08
2018-03-17T10:39:53.699Z,87.89
2018-03-17T10:40:53.616Z,87.42
2018-03-17T10:41:53.568Z,87.51
2018-03-17T10:42:53.534Z,87.32
2018-03-17T10:43:53.488Z,87.13
2018-03-17T10:44:53.463Z,86.66
2018-03-17T10:45:53.398Z,88.55
2018-03-17T10:46:53.348Z,87.23
2018-03-17T10:47:53.404Z,87.51
2018-03-17T10:48:53.262Z,87.51
2018-03-17T10:49:53.214Z,87.89
2018-03-17T10:50:53.194Z,88.36
2018-03-17T10:51:53.113Z,89.12
2018-03-17T10:52:53.080Z,88.46
2018-03-17T10:53:53.028Z,88.17
2018-03-17T10:54:52.983Z,88.27
2018-03-17T10:55:52.945Z,88.65
2018-03-17T10:56:52.921Z,87.89
2018-03-17T10:57:52.845Z,87.61
2018-03-17T10:58:52.800Z,87.04
2018-03-17T10:59:52.751Z,87.32
2018-03-17T11:00:52.750Z,87.61
2018-03-17T11:01:52.673Z,87.32
2018-03-17T11:02:52.654Z,88.65
2018-03-17T11:03:52.580Z,87.89
2018-03-17T11:04:52.534Z,88.08
2018-03-17T11:05:52.541Z,87.51
2018-03-17T11:06:52.444Z,87.70
2018-03-17T11:07:52.404Z,87.51
2018-03-17T11:08:52.365Z,87.32
2018-03-17T11:09:52.298Z,86.85
2018-03-17T11:10:52.256Z,86.19
2018-03-17T11:11:52.215Z,86.38
2018-03-17T11:12:52.164Z,85.62
2018-03-17T11:13:52.160Z,85.43
2018-03-17T11:14:52.084Z,86.10
2018-03-17T11:15:52.024Z,86.66
2018-03-17T11:16:52.108Z,86.47
2018-03-17T11:17:51.931Z,86.85
2018-03-17T11:18:51.894Z,86.29
2018-03-17T11:19:51.868Z,85.72
2018-03-17T11:20:51.800Z,84.77
2018-03-17T11:21:51.814Z,85.62
2018-03-17T11:22:51.779Z,86.29
2018-03-17T11:23:51.678Z,85.91
2018-03-17T11:24:51.654Z,86.10
2018-03-17T11:25:51.579Z,86.85
2018-03-17T11:26:51.530Z,84.77
2018-03-17T11:27:51.474Z,85.43
2018-03-17T11:28:51.434Z,85.34
2018-03-17T11:29:51.391Z,85.24
2018-03-17T11:30:51.373Z,85.34
2018-03-17T11:31:51.309Z,85.53
2018-03-17T11:32:51.253Z,84.77
2018-03-17T11:33:51.290Z,84.68
2018-03-17T11:34:51.155Z,84.30
2018-03-17T11:35:51.149Z,84.58
2018-03-17T11:36:51.066Z,84.01
2018-03-17T11:37:51.021Z,83.45
2018-03-17T11:38:50.979Z,82.88
2018-03-17T11:39:50.934Z,82.69
2018-03-17T11:40:50.911Z,82.31
2018-03-17T11:41:50.849Z,82.79
2018-03-17T11:42:50.803Z,82.31
2018-03-17T11:43:50.753Z,82.88
2018-03-17T11:44:50.700Z,82.79
2018-03-17T11:45:50.660Z,82.79
2018-03-17T11:46:50.650Z,81.84
2018-03-17T11:47:50.572Z,81.18
2018-03-17T11:48:50.529Z,81.71
2018-03-17T11:49:50.469Z,81.65
2018-03-17T11:50:50.435Z,81.84
2018-03-17T11:51:50.382Z,81.18
2018-03-17T11:52:50.366Z,81.56
2018-03-17T11:53:50.294Z,81.37
2018-03-17T11:54:50.253Z,81.37
2018-03-17T11:55:50.201Z,80.71
2018-03-17T11:56:50.157Z,80.33
2018-03-17T11:57:50.136Z,79.86
2018-03-17T11:58:50.058Z,79.19
2018-03-17T11:59:50.012Z,79.57
2018-03-17T12:00:49.970Z,79.00
2018-03-17T12:01:49.926Z,79.19
2018-03-17T12:02:49.902Z,79.76
2018-03-17T12:03:49.868Z,78.44
2018-03-17T12:04:49.793Z,78.81
2018-03-17T12:05:49.743Z,78.91
2018-03-17T12:06:49.690Z,78.81
2018-03-17T12:07:49.651Z,78.34
2018-03-17T12:08:49.607Z,77.59
2018-03-17T12:09:49.594Z,78.16
2018-03-17T12:10:49.510Z,77.69
2018-03-17T12:11:49.461Z,78.16
2018-03-17T12:12:49.431Z,79.00
2018-03-17T12:13:49.381Z,78.25
2018-03-17T12:14:49.366Z,79.57
2018-03-17T12:15:49.306Z,78.81
2018-03-17T12:16:49.243Z,78.44
2018-03-17T12:17:49.197Z,78.53
2018-03-17T12:18:49.152Z,78.34
2018-03-17T12:19:49.095Z,77.59
2018-03-17T12:20:49.098Z,77.50
2018-03-17T12:21:49.008Z,77.69
2018-03-17T12:22:48.970Z,77.59
2018-03-17T12:23:48.915Z,77.69
2018-03-17T12:24:48.873Z,78.25
2018-03-17T12:25:48.823Z,77.50
2018-03-17T12:26:48.810Z,78.34
2018-03-17T12:27:48.743Z,79.29
2018-03-17T12:28:48.690Z,79.48
2018-03-17T12:29:48.653Z,79.76
2018-03-17T12:30:48.601Z,80.14
2018-03-17T12:31:48.549Z,79.29
2018-03-17T12:32:48.543Z,78.72
2018-03-17T12:33:48.465Z,78.25
2018-03-17T12:34:48.427Z,78.44
2018-03-17T12:35:48.374Z,79.19
2018-03-17T12:36:48.323Z,78.44
2018-03-17T12:37:48.314Z,78.81
2018-03-17T12:38:48.224Z,78.44
2018-03-17T12:39:48.193Z,78.44
2018-03-17T12:40:48.140Z,78.06
2018-03-17T12:41:48.100Z,78.44
2018-03-17T12:42:48.072Z,77.69
2018-03-17T12:43:48.039Z,77.59
2018-03-17T12:44:47.968Z,77.31
2018-03-17T12:45:47.904Z,76.07
2018-03-17T12:46:47.876Z,76.17
2018-03-17T12:47:47.840Z,75.89
2018-03-17T12:48:47.766Z,75.79
2018-03-17T12:49:47.753Z,75.98
2018-03-17T12:50:47.688Z,76.07
2018-03-17T12:51:47.635Z,75.79
2018-03-17T12:52:47.595Z,75.89
2018-03-17T12:53:47.541Z,76.07